createdAt,value
2023-02-01T00:00:31.711Z,4.70
2023-02-01T00:02:58.431Z,4.55
2023-02-01T00:05:25.245Z,5.10
2023-02-01T00:07:52.175Z,5.55
2023-02-01T00:10:19.096Z,4.50
2023-02-01T00:12:46.021Z,4.80
2023-02-01T00:15:13.028Z,5.38
2023-02-01T00:17:39.822Z,5.45
2023-02-01T00:20:07.200Z,4.47
2023-02-01T00:22:33.934Z,5.45
2023-02-01T00:25:00.767Z,4.97
2023-02-01T00:27:27.579Z,5.50
2023-02-01T00:29:56.316Z,4.20
2023-02-01T00:32:23.195Z,4.38
2023-02-01T00:34:49.984Z,5.13
2023-02-01T00:37:16.751Z,4.57
2023-02-01T00:39:43.570Z,4.43
2023-02-01T00:42:11.194Z,4.32
2023-02-01T00:44:38.080Z,4.63
2023-02-01T00:47:04.860Z,4.60
2023-02-01T00:49:31.681Z,3.85
2023-02-01T00:51:58.511Z,3.58
2023-02-01T00:54:25.577Z,5.30
2023-02-01T00:56:52.389Z,4.70
2023-02-01T00:59:19.482Z,4.85
2023-02-01T01:01:46.377Z,4.00
2023-02-01T01:04:13.261Z,5.25
2023-02-01T01:06:40.056Z,4.03
2023-02-01T01:09:08.692Z,4.75
2023-02-01T01:11:38.161Z,3.72
2023-02-01T01:14:06.564Z,4.05
2023-02-01T01:16:33.445Z,4.22
2023-02-01T01:19:01.242Z,4.63
2023-02-01T01:21:28.480Z,4.57
2023-02-01T01:23:55.610Z,4.75
2023-02-01T01:26:26.398Z,5.20
2023-02-01T01:28:55.459Z,5.20
2023-02-01T01:31:22.778Z,4.75
2023-02-01T01:33:51.775Z,4.03
2023-02-01T01:36:18.995Z,4.32
2023-02-01T01:38:45.801Z,4.72
2023-02-01T01:41:21.972Z,4.22
2023-02-01T01:43:58.552Z,4.50
2023-02-01T01:46:29.447Z,3.67
2023-02-01T01:49:11.951Z,3.70
2023-02-01T01:51:48.695Z,3.65
2023-02-01T01:54:35.649Z,3.90
2023-02-01T01:57:10.281Z,4.03
2023-02-01T01:59:39.371Z,3.13
2023-02-01T02:02:06.251Z,3.72
2023-02-01T02:04:35.353Z,2.95
2023-02-01T02:07:09.420Z,3.05
2023-02-01T02:09:36.456Z,3.78
2023-02-01T02:12:03.348Z,3.03
2023-02-01T02:14:30.933Z,3.80
2023-02-01T02:17:34.454Z,3.38
2023-02-01T02:20:30.287Z,3.63
2023-02-01T02:23:11.979Z,3.65
2023-02-01T02:25:56.601Z,4.03
2023-02-01T02:28:38.359Z,3.78
2023-02-01T02:31:42.824Z,4.50
2023-02-01T02:34:21.604Z,4.18
2023-02-01T02:37:03.174Z,3.90
2023-02-01T02:42:21.086Z,3.67
2023-02-01T02:45:09.439Z,3.72
2023-02-01T02:47:56.960Z,4.30
2023-02-01T02:51:16.310Z,3.53
2023-02-01T02:54:06.852Z,4.15
2023-02-01T02:56:53.889Z,3.53
2023-02-01T02:59:45.585Z,3.58
2023-02-01T03:02:32.762Z,4.22
2023-02-01T03:04:59.855Z,3.60
2023-02-01T03:07:45.264Z,5.45
2023-02-01T03:10:30.757Z,3.15
2023-02-01T03:13:05.850Z,5.13
2023-02-01T03:15:57.689Z,4.00
2023-02-01T03:19:06.759Z,4.22
2023-02-01T03:21:56.731Z,3.60
2023-02-01T03:24:34.711Z,3.47
2023-02-01T03:27:28.567Z,3.95
2023-02-01T03:30:01.459Z,3.63
2023-02-01T03:32:28.897Z,4.00
2023-02-01T03:34:56.757Z,3.72
2023-02-01T03:37:29.030Z,4.47
2023-02-01T03:40:04.460Z,4.47
2023-02-01T03:42:46.156Z,4.72
2023-02-01T03:45:13.089Z,4.00
2023-02-01T03:47:45.020Z,4.43
2023-02-01T03:50:19.274Z,4.13
2023-02-01T03:52:48.948Z,3.65
2023-02-01T03:55:18.687Z,4.30
2023-02-01T03:57:52.053Z,5.38
2023-02-01T04:00:23.331Z,3.83
2023-02-01T04:02:51.371Z,4.20
2023-02-01T04:05:18.481Z,3.45
2023-02-01T04:07:45.340Z,4.40
2023-02-01T04:10:12.794Z,4.30
2023-02-01T04:12:40.860Z,3.83
2023-02-01T04:15:08.870Z,3.67
2023-02-01T04:17:35.734Z,3.45
2023-02-01T04:20:02.564Z,3.63
2023-02-01T04:22:29.918Z,4.47
2023-02-01T04:24:56.700Z,3.58
2023-02-01T04:29:52.997Z,3.50
2023-02-01T04:32:20.991Z,4.05
2023-02-01T04:34:47.803Z,5.25
2023-02-01T04:37:14.555Z,4.03
2023-02-01T04:39:41.280Z,4.40
2023-02-01T04:42:08.069Z,3.50
2023-02-01T04:44:34.793Z,3.70
2023-02-01T04:47:01.529Z,3.55
2023-02-01T04:49:28.333Z,3.75
2023-02-01T04:51:55.094Z,3.67
2023-02-01T04:54:21.823Z,3.97
2023-02-01T04:56:48.643Z,3.67
2023-02-01T04:59:15.450Z,3.22
2023-02-01T05:01:42.248Z,3.58
2023-02-01T05:04:09.051Z,3.40
2023-02-01T05:06:35.794Z,3.92
2023-02-01T05:09:02.580Z,3.55
2023-02-01T05:11:48.252Z,3.65
2023-02-01T05:14:14.959Z,3.75
2023-02-01T05:16:41.751Z,3.38
2023-02-01T05:19:08.624Z,3.63
2023-02-01T05:21:35.355Z,3.30
2023-02-01T05:24:11.254Z,3.90
2023-02-01T05:26:39.314Z,3.50
2023-02-01T05:29:07.035Z,3.33
2023-02-01T05:31:34.408Z,3.97
2023-02-01T05:34:01.236Z,3.42
2023-02-01T05:36:28.597Z,3.75
2023-02-01T05:38:55.578Z,3.78
2023-02-01T05:41:22.400Z,4.30
2023-02-01T05:43:49.290Z,3.55
2023-02-01T05:46:16.488Z,4.10
2023-02-01T05:48:43.965Z,3.33
2023-02-01T05:51:12.161Z,3.72
2023-02-01T05:53:39.146Z,4.45
2023-02-01T05:56:06.376Z,3.15
2023-02-01T05:58:33.291Z,3.85
2023-02-01T06:01:01.579Z,3.83
2023-02-01T06:03:28.665Z,3.55
2023-02-01T06:05:56.006Z,4.05
2023-02-01T06:08:25.454Z,4.18
2023-02-01T06:10:58.252Z,3.83
2023-02-01T06:13:25.010Z,4.88
2023-02-01T06:15:52.439Z,4.07
2023-02-01T06:18:19.593Z,3.55
2023-02-01T06:20:46.371Z,5.28
2023-02-01T06:23:13.176Z,4.68
2023-02-01T06:25:39.970Z,4.05
2023-02-01T06:28:06.952Z,4.38
2023-02-01T06:30:33.898Z,3.80
2023-02-01T06:33:00.663Z,3.55
2023-02-01T06:35:27.667Z,4.68
2023-02-01T06:37:54.491Z,4.43
2023-02-01T06:40:21.416Z,4.38
2023-02-01T06:42:50.354Z,3.65
2023-02-01T06:45:17.484Z,3.63
2023-02-01T06:47:44.235Z,4.53
2023-02-01T06:50:11.431Z,3.60
2023-02-01T06:52:38.231Z,4.22
2023-02-01T06:55:05.339Z,4.20
2023-02-01T06:57:34.211Z,3.90
2023-02-01T07:00:01.449Z,3.35
2023-02-01T07:02:28.200Z,4.32
2023-02-01T07:04:54.949Z,4.10
2023-02-01T07:07:23.612Z,4.15
2023-02-01T07:09:51.069Z,4.28
2023-02-01T07:12:18.095Z,4.00
2023-02-01T07:14:44.922Z,3.67
2023-02-01T07:17:11.683Z,3.42
2023-02-01T07:19:38.424Z,3.47
2023-02-01T07:22:05.252Z,4.30
2023-02-01T07:24:32.479Z,4.20
2023-02-01T07:26:59.259Z,3.65
2023-02-01T07:29:26.105Z,3.63
2023-02-01T07:31:52.829Z,3.60
2023-02-01T07:34:19.573Z,5.10
2023-02-01T07:36:46.649Z,3.90
2023-02-01T07:39:13.404Z,4.25
2023-02-01T07:41:40.111Z,4.03
2023-02-01T07:44:06.955Z,4.05
2023-02-01T07:46:33.789Z,4.13
2023-02-01T07:49:00.618Z,4.13
2023-02-01T07:51:27.412Z,2.95
2023-02-01T07:53:56.233Z,4.45
2023-02-01T07:56:23.761Z,3.95
2023-02-01T07:58:52.248Z,3.70
2023-02-01T08:01:21.878Z,4.22
2023-02-01T08:03:50.246Z,4.45
2023-02-01T08:06:17.492Z,3.60
2023-02-01T08:08:46.326Z,4.07
2023-02-01T08:11:13.728Z,4.53
2023-02-01T08:13:40.853Z,4.78
2023-02-01T08:16:10.039Z,4.25
2023-02-01T08:18:38.664Z,3.58
2023-02-01T08:21:26.884Z,3.80
2023-02-01T08:23:53.906Z,3.80
2023-02-01T08:26:27.481Z,4.53
2023-02-01T08:29:00.763Z,3.55
2023-02-01T08:31:30.079Z,4.20
2023-02-01T08:33:59.735Z,4.07
2023-02-01T08:36:28.988Z,4.13
2023-02-01T08:38:56.194Z,3.65
2023-02-01T08:41:26.170Z,3.97
2023-02-01T08:43:55.256Z,3.80
2023-02-01T08:46:23.059Z,4.10
2023-02-01T08:48:50.581Z,3.60
2023-02-01T08:51:19.613Z,4.38
2023-02-01T08:53:47.177Z,3.80
2023-02-01T08:56:15.939Z,3.33
2023-02-01T08:58:43.105Z,4.13
2023-02-01T09:01:15.347Z,3.80
2023-02-01T09:03:42.282Z,4.45
2023-02-01T09:06:13.101Z,3.92
2023-02-01T09:08:41.315Z,3.92
2023-02-01T09:11:12.628Z,3.90
2023-02-01T09:16:06.398Z,4.15
2023-02-01T09:18:33.448Z,3.42
2023-02-01T09:21:00.577Z,4.10
2023-02-01T09:23:27.523Z,3.33
2023-02-01T09:25:54.396Z,4.15
2023-02-01T09:28:21.152Z,3.55
2023-02-01T09:30:48.212Z,3.45
2023-02-01T09:33:15.379Z,2.60
2023-02-01T09:35:42.182Z,3.38
2023-02-01T09:38:08.993Z,3.70
2023-02-01T09:40:36.660Z,2.78
2023-02-01T09:43:41.607Z,3.33
2023-02-01T09:46:43.628Z,3.85
2023-02-01T09:49:20.636Z,3.25
2023-02-01T09:51:51.170Z,3.72
2023-02-01T09:54:22.942Z,3.20
2023-02-01T09:57:09.663Z,3.40
2023-02-01T09:59:44.749Z,3.85
2023-02-01T10:02:24.215Z,3.05
2023-02-01T10:04:51.180Z,3.10
2023-02-01T10:07:46.639Z,3.30
2023-02-01T10:10:27.067Z,3.75
2023-02-01T10:13:24.817Z,4.07
2023-02-01T10:16:21.155Z,3.80
2023-02-01T10:19:23.339Z,3.15
2023-02-01T10:21:56.105Z,3.38
2023-02-01T10:24:41.271Z,3.08
2023-02-01T10:27:15.291Z,3.10
2023-02-01T10:29:44.850Z,2.47
2023-02-01T10:32:15.713Z,2.65
2023-02-01T10:34:45.567Z,2.65
2023-02-01T10:37:30.687Z,3.22
2023-02-01T10:40:00.589Z,2.78
2023-02-01T10:42:29.730Z,2.50
2023-02-01T10:45:00.533Z,3.13
2023-02-01T10:47:27.358Z,3.20
2023-02-01T10:50:08.079Z,3.28
2023-02-01T10:52:42.007Z,3.40
2023-02-01T10:55:50.717Z,3.63
2023-02-01T10:58:32.757Z,3.58
2023-02-01T11:01:06.429Z,2.92
2023-02-01T11:03:34.905Z,3.35
2023-02-01T11:06:05.143Z,2.67
2023-02-01T11:08:32.160Z,3.50
2023-02-01T11:11:02.138Z,3.28
2023-02-01T11:13:37.071Z,3.03
2023-02-01T11:16:05.782Z,3.10
2023-02-01T11:18:37.469Z,2.80
2023-02-01T11:21:06.518Z,3.88
2023-02-01T11:23:34.907Z,3.10
2023-02-01T11:26:09.373Z,2.70
2023-02-01T11:28:40.369Z,3.33
2023-02-01T11:31:13.463Z,3.35
2023-02-01T11:33:48.807Z,3.05
2023-02-01T11:36:22.763Z,2.70
2023-02-01T11:39:12.797Z,3.97
2023-02-01T11:41:44.441Z,3.17
2023-02-01T11:44:23.784Z,3.33
2023-02-01T11:46:50.793Z,3.08
2023-02-01T11:49:24.911Z,3.00
2023-02-01T11:52:19.578Z,3.50
2023-02-01T11:55:16.620Z,2.65
2023-02-01T11:57:58.620Z,2.53
2023-02-01T12:00:31.428Z,3.10
2023-02-01T12:03:19.705Z,2.80
2023-02-01T12:06:09.703Z,2.00
2023-02-01T12:09:00.237Z,2.22
2023-02-01T12:11:34.720Z,2.95
2023-02-01T12:14:20.427Z,2.20
2023-02-01T12:17:30.596Z,2.30
2023-02-01T12:20:24.767Z,2.03
2023-02-01T12:23:06.692Z,2.10
2023-02-01T12:25:45.475Z,2.05
2023-02-01T12:28:48.798Z,1.85
2023-02-01T12:31:33.898Z,2.35
2023-02-01T12:34:22.031Z,2.42
2023-02-01T12:36:57.961Z,3.30
2023-02-01T12:39:31.188Z,2.20
2023-02-01T12:42:24.243Z,2.20
2023-02-01T12:45:03.948Z,2.25
2023-02-01T12:47:42.927Z,2.25
2023-02-01T12:50:23.091Z,2.20
2023-02-01T12:52:52.998Z,2.20
2023-02-01T12:55:19.917Z,2.10
2023-02-01T12:57:53.330Z,2.50
2023-02-01T13:00:33.840Z,2.53
2023-02-01T13:03:18.815Z,1.95
2023-02-01T13:05:56.072Z,2.67
2023-02-01T22:04:25.631Z,1.20
2023-02-01T22:06:52.374Z,1.52
2023-02-01T22:09:24.183Z,1.25
2023-02-01T22:11:53.056Z,1.10
2023-02-01T22:14:20.577Z,1.50
2023-02-01T22:16:47.686Z,1.50
2023-02-01T22:19:15.346Z,1.42
2023-02-01T22:21:45.447Z,1.40
2023-02-01T22:24:15.733Z,1.52
2023-02-01T22:26:43.382Z,1.63
2023-02-01T22:29:13.225Z,1.30
2023-02-01T22:31:40.355Z,1.50
2023-02-01T22:34:07.295Z,2.10
2023-02-01T22:36:34.042Z,1.40
2023-02-01T22:39:00.850Z,1.27
2023-02-01T22:41:27.653Z,1.38
2023-02-01T22:43:54.402Z,1.50
2023-02-01T22:46:25.575Z,1.38
2023-02-01T22:48:52.684Z,1.15
2023-02-01T22:51:28.970Z,1.20
2023-02-01T22:54:00.108Z,1.25
2023-02-01T22:56:32.394Z,1.33
2023-02-01T22:59:04.933Z,1.60
2023-02-01T23:01:33.289Z,1.58
2023-02-01T23:04:03.115Z,1.25
2023-02-01T23:06:30.630Z,1.38
2023-02-01T23:09:03.285Z,1.30
2023-02-01T23:11:30.933Z,1.42
2023-02-01T23:13:57.875Z,1.33
2023-02-01T23:16:24.969Z,1.30
2023-02-01T23:18:51.855Z,1.40
2023-02-01T23:21:20.895Z,1.10
2023-02-01T23:23:53.272Z,1.15
2023-02-01T23:26:21.188Z,1.30
2023-02-01T23:28:50.749Z,1.10
2023-02-01T23:31:17.602Z,1.45
2023-02-01T23:33:45.547Z,1.00
2023-02-01T23:36:16.176Z,1.55
2023-02-01T23:38:44.205Z,1.48
2023-02-01T23:41:12.829Z,1.10
2023-02-01T23:43:58.094Z,0.90
2023-02-01T23:46:28.117Z,1.25
2023-02-01T23:48:55.361Z,1.63
2023-02-01T23:51:23.473Z,1.30
2023-02-01T23:53:50.706Z,1.17
2023-02-01T23:56:26.078Z,1.27
2023-02-01T23:58:53.933Z,1.17
